Time;durP1;ratioP1;P1;durP2;ratioP2;P2;SDS_P1;SDS_P2;PMS_P1;PMS_P2;Temp;Humidity;BMP_temperature;BMP_pressure;BME280_temperature;BME280_humidity;BME280_pressure;Samples;Min_cycle;Max_cycle;Signal;HPM_P1;HPM_P2
2022/12/02 00:01:12;;;;;;;;;20.75;18.50;;;;;20.24;35.10;101877.84;5060435;28;44773;-50
2022/12/02 00:03:38;;;;;;;;;18.25;16.00;;;;;20.29;34.99;101881.16;5060742;28;44769;-50
2022/12/02 00:06:04;;;;;;;;;17.75;15.50;;;;;20.31;34.95;101876.69;5060515;28;45259;-50
2022/12/02 00:08:32;;;;;;;;;15.75;15.00;;;;;20.32;35.29;101862.63;5052707;28;45165;-46
2022/12/02 00:11:01;;;;;;;;;18.75;15.50;;;;;20.37;35.04;101863.28;5045946;28;45443;-49
2022/12/02 00:13:38;;;;;;;;;18.75;15.00;;;;;20.38;35.03;101859.75;5057254;28;45962;-49
2022/12/02 00:16:04;;;;;;;;;21.00;17.50;;;;;20.42;35.28;101860.47;5044868;28;46313;-52
2022/12/02 00:18:30;;;;;;;;;14.75;13.75;;;;;20.44;35.16;101857.81;5043998;28;45327;-48
2022/12/02 00:20:55;;;;;;;;;14.00;13.50;;;;;20.46;35.25;101864.72;5051145;28;45284;-48
2022/12/02 00:23:21;;;;;;;;;18.00;16.25;;;;;20.48;35.25;101862.00;5051833;28;45587;-49
2022/12/02 00:25:49;;;;;;;;;21.50;14.50;;;;;20.50;34.81;101857.56;5055568;28;44969;-47
2022/12/02 00:28:14;;;;;;;;;18.25;17.25;;;;;20.47;34.95;101852.41;5058582;28;45373;-50
2022/12/02 00:30:40;;;;;;;;;18.25;15.25;;;;;20.50;35.32;101857.56;5046121;28;56104;-49
2022/12/02 00:33:06;;;;;;;;;16.50;14.50;;;;;20.50;34.90;101852.28;5053700;28;45432;-47
2022/12/02 00:35:31;;;;;;;;;15.00;14.00;;;;;20.51;35.26;101851.38;5055884;28;46089;-50
2022/12/02 00:37:57;;;;;;;;;21.67;11.67;;;;;20.50;34.85;101847.03;5056575;28;61809;-47
2022/12/02 00:40:22;;;;;;;;;18.50;15.25;;;;;20.48;35.27;101841.81;5042254;28;45219;-51
2022/12/02 00:42:48;;;;;;;;;18.00;15.33;;;;;20.50;35.29;101847.03;5043235;28;45551;-47
2022/12/02 00:47:58;;;;;;;;;15.00;11.25;;;;;20.47;34.68;101839.22;5047279;28;45247;-48
2022/12/02 00:50:23;;;;;;;;;15.50;14.00;;;;;20.48;35.04;101843.59;5041289;28;45256;-50
2022/12/02 00:52:49;;;;;;;;;18.00;15.25;;;;;20.48;35.08;101840.94;5053286;28;45315;-47
2022/12/02 00:55:15;;;;;;;;;18.75;13.25;;;;;20.45;34.95;101828.78;5045235;28;46122;-50
2022/12/02 00:57:40;;;;;;;;;17.00;13.25;;;;;20.46;35.28;101829.63;5047812;28;45250;-49
2022/12/02 01:00:06;;;;;;;;;16.75;14.50;;;;;20.47;34.92;101836.59;5049356;28;45465;-51
2022/12/02 01:02:32;;;;;;;;;16.25;14.25;;;;;20.47;35.09;101833.97;5061183;28;44854;-50
2022/12/02 01:04:57;;;;;;;;;15.50;13.25;;;;;20.47;35.31;101836.59;5037300;28;45419;-49
2022/12/02 01:07:23;;;;;;;;;20.00;14.25;;;;;20.45;34.74;101827.94;5037416;28;45334;-48
2022/12/02 01:09:48;;;;;;;;;15.75;12.50;;;;;20.46;34.94;101824.34;5036686;28;46646;-46
2022/12/02 01:12:13;;;;;;;;;14.75;14.75;;;;;20.45;34.90;101825.28;5036907;28;45559;-49
2022/12/02 01:14:39;;;;;;;;;17.25;12.75;;;;;20.44;35.32;101820.94;5035941;28;46116;-50
2022/12/02 01:17:04;;;;;;;;;15.75;12.25;;;;;20.45;35.13;101825.28;5036883;28;45365;-47
2022/12/02 01:19:30;;;;;;;;;17.75;13.50;;;;;20.43;35.05;101819.22;5036339;28;45317;-48
2022/12/02 01:21:55;;;;;;;;;12.25;12.25;;;;;20.44;34.89;101823.56;5036810;28;45440;-51
2022/12/02 01:24:21;;;;;;;;;15.00;14.00;;;;;20.42;35.16;101817.50;5036406;28;46116;-49
2022/12/02 01:26:46;;;;;;;;;15.25;12.25;;;;;20.43;34.90;101819.22;5036509;28;45310;-48
2022/12/02 01:29:11;;;;;;;;;13.25;10.75;;;;;20.42;35.03;101812.25;5036837;28;45314;-49
2022/12/02 01:31:37;;;;;;;;;14.00;10.50;;;;;20.41;34.68;101815.78;5040467;28;45430;-49
2022/12/02 01:34:02;;;;;;;;;14.67;13.33;;;;;20.41;35.05;101821.06;5057235;28;48770;-50
2022/12/02 01:36:27;;;;;;;;;18.50;14.50;;;;;20.40;34.76;101820.19;5037042;28;45350;-50
2022/12/02 01:38:52;;;;;;;;;14.67;12.00;;;;;20.38;34.77;101824.66;5036154;28;49829;-48
2022/12/02 01:41:18;;;;;;;;;14.00;12.75;;;;;20.37;34.80;101821.16;5036617;28;45579;-52
2022/12/02 01:43:43;;;;;;;;;15.00;12.75;;;;;20.37;34.87;101825.59;5035699;28;47018;-47
2022/12/02 01:46:09;;;;;;;;;6.00;4.00;;;;;20.35;34.72;101820.34;5036283;28;45206;-49
2022/12/02 01:48:35;;;;;;;;;14.25;11.25;;;;;20.35;35.25;101828.25;5036289;28;45289;-47
2022/12/02 01:51:02;;;;;;;;;15.00;13.50;;;;;20.35;34.73;101827.41;5050919;28;45607;-46
2022/12/02 01:53:27;;;;;;;;;12.50;12.00;;;;;20.31;35.01;101834.59;5054474;28;45615;-48
2022/12/02 01:55:53;;;;;;;;;14.75;11.75;;;;;20.33;35.21;101831.88;5036541;28;45398;-48
2022/12/02 01:58:23;;;;;;;;;14.75;12.25;;;;;20.30;35.13;101832.84;5036298;28;45357;-50
2022/12/02 02:00:48;;;;;;;;;14.25;10.50;;;;;20.31;35.28;101829.31;5036168;28;45318;-49
2022/12/02 02:03:14;;;;;;;;;16.50;14.75;;;;;20.30;35.34;101829.34;5036045;28;46230;-46
2022/12/02 02:05:40;;;;;;;;;11.25;10.50;;;;;20.30;34.69;101834.63;5036425;28;45219;-51
2022/12/02 02:08:08;;;;;;;;;12.25;11.00;;;;;20.29;34.92;101830.25;5036602;28;45271;-51
2022/12/02 02:10:36;;;;;;;;;15.50;13.25;;;;;20.27;34.98;101830.34;5036652;28;45521;-50
2022/12/02 02:13:02;;;;;;;;;14.00;13.50;;;;;20.27;34.75;101832.13;5036402;28;45435;-47
2022/12/02 02:15:27;;;;;;;;;13.00;13.00;;;;;20.26;35.27;101841.78;5041556;28;45330;-52
2022/12/02 02:17:56;;;;;;;;;13.25;12.25;;;;;20.26;34.95;101838.31;5041964;28;45248;-51
2022/12/02 02:20:23;;;;;;;;;13.75;12.25;;;;;20.25;34.78;101824.28;5061095;28;44822;-50
2022/12/02 02:23:04;;;;;;;;;16.00;13.00;;;;;20.23;34.71;101812.94;5044214;28;45363;-47
2022/12/02 02:25:41;;;;;;;;;14.50;10.25;;;;;20.23;34.85;101810.31;5042333;28;45250;-49
2022/12/02 02:28:08;;;;;;;;;12.00;9.25;;;;;20.21;35.18;101807.75;5041949;28;45169;-50
2022/12/02 02:30:35;;;;;;;;;14.50;12.75;;;;;20.21;34.58;101814.78;5037057;28;45417;-48
2022/12/02 02:33:03;;;;;;;;;14.50;12.75;;;;;20.20;34.78;101807.81;5036315;28;46249;-49
2022/12/02 02:35:29;;;;;;;;;17.00;11.50;;;;;20.19;34.78;101800.81;5037566;28;45377;-47
2022/12/02 02:37:55;;;;;;;;;11.75;11.75;;;;;20.18;34.77;101804.38;5042949;28;45414;-46
2022/12/02 02:40:23;;;;;;;;;13.75;13.50;;;;;20.18;34.74;101793.84;5045934;28;45792;-48
2022/12/02 02:42:56;;;;;;;;;11.75;11.75;;;;;20.17;34.95;101805.28;5036002;28;45366;-53
2022/12/02 02:45:25;;;;;;;;;17.75;14.75;;;;;20.16;35.05;101796.53;5035432;28;46006;-48
2022/12/02 02:47:52;;;;;;;;;19.00;14.00;;;;;20.15;35.10;101796.59;5035460;28;45417;-50
2022/12/02 02:50:18;;;;;;;;;13.75;12.25;;;;;20.11;34.84;101780.06;5036420;28;45225;-49
2022/12/02 02:52:44;;;;;;;;;13.25;11.00;;;;;20.14;34.95;101784.34;5058831;28;45966;-49
2022/12/02 02:55:17;;;;;;;;;9.50;9.50;;;;;20.14;35.29;101789.59;5050848;28;45265;-48
2022/12/02 02:57:43;;;;;;;;;13.00;12.00;;;;;20.11;35.25;101781.84;5041811;28;45277;-51
2022/12/02 03:00:09;;;;;;;;;12.75;10.75;;;;;20.11;34.65;101787.97;5047932;28;45647;-50
2022/12/02 03:02:34;;;;;;;;;16.50;13.50;;;;;20.10;34.87;101783.59;5043296;28;45438;-46
2022/12/02 03:05:00;;;;;;;;;13.00;12.00;;;;;20.11;35.06;101781.84;5055099;28;45329;-49
2022/12/02 03:07:25;;;;;;;;;13.75;12.50;;;;;20.08;35.02;101773.16;5048252;28;45327;-50
2022/12/02 03:09:51;;;;;;;;;12.75;12.75;;;;;20.08;34.72;101773.16;5039389;28;45485;-47
2022/12/02 03:12:17;;;;;;;;;15.25;14.00;;;;;20.06;34.80;101766.25;5038696;28;47709;-47
2022/12/02 03:14:43;;;;;;;;;13.25;13.25;;;;;20.05;35.37;101768.00;5039018;28;45405;-51
2022/12/02 03:17:09;;;;;;;;;13.25;10.75;;;;;20.05;35.19;101767.16;5038642;28;45402;-50
2022/12/02 03:19:36;;;;;;;;;13.50;13.50;;;;;20.04;34.86;101774.16;5038905;28;45418;-49
2022/12/02 03:22:02;;;;;;;;;13.25;11.50;;;;;20.03;34.92;101768.97;5038427;28;47054;-50
2022/12/02 03:24:29;;;;;;;;;7.25;4.00;;;;;20.04;35.24;101766.28;5038541;28;46247;-49
2022/12/02 03:26:54;;;;;;;;;15.75;11.75;;;;;20.05;35.58;101769.78;5039402;28;45286;-49
2022/12/02 03:29:20;;;;;;;;;14.50;12.00;;;;;20.05;35.40;101770.63;5038866;28;45330;-47
2022/12/02 03:31:46;;;;;;;;;14.75;13.25;;;;;20.08;35.59;101757.34;5040367;28;46133;-50
2022/12/02 03:34:12;;;;;;;;;16.75;15.75;;;;;20.11;35.05;101758.16;5040567;28;45390;-47
2022/12/02 03:36:38;;;;;;;;;14.75;13.50;;;;;20.16;35.09;101769.34;5041117;28;45358;-52
2022/12/02 03:39:04;;;;;;;;;16.25;13.75;;;;;20.20;35.51;101765.69;5049194;28;45567;-49
2022/12/02 03:41:30;;;;;;;;;17.50;13.25;;;;;20.26;35.31;101759.34;5054950;28;46019;-50
2022/12/02 03:43:57;;;;;;;;;15.25;13.00;;;;;20.28;35.22;101755.72;5053926;28;45259;-46
2022/12/02 03:46:22;;;;;;;;;12.75;10.50;;;;;20.32;35.09;101757.31;5061376;28;44857;-46
2022/12/02 03:48:48;;;;;;;;;14.00;12.50;;;;;20.36;35.58;101753.63;5041821;28;45352;-50
2022/12/02 03:51:15;;;;;;;;;20.00;15.25;;;;;20.39;34.93;101753.50;5040184;28;45326;-50
2022/12/02 03:53:41;;;;;;;;;14.00;11.00;;;;;20.42;35.05;101746.41;5039549;28;45263;-51
2022/12/02 03:56:08;;;;;;;;;16.25;13.00;;;;;20.46;34.92;101747.97;5040859;28;45247;-51
2022/12/02 03:58:39;;;;;;;;;13.25;12.50;;;;;20.47;35.14;101733.91;5044138;28;45410;-49
2022/12/02 04:01:05;;;;;;;;;11.00;11.00;;;;;20.52;34.90;101743.31;5044418;28;45770;-48
2022/12/02 04:03:31;;;;;;;;;13.75;12.75;;;;;20.53;35.13;101736.28;5044704;28;46349;-49
2022/12/02 04:05:56;;;;;;;;;15.75;14.00;;;;;20.57;35.07;101737.03;5044722;28;45235;-49
2022/12/02 04:08:22;;;;;;;;;17.50;15.75;;;;;20.58;35.23;101736.94;5044110;28;45223;-49
2022/12/02 04:10:47;;;;;;;;;14.00;13.00;;;;;20.59;34.57;101738.66;5073675;28;47308;-47
2022/12/02 04:13:12;;;;;;;;;15.25;14.00;;;;;20.61;34.89;101734.19;5062942;27;63777;-49
2022/12/02 04:15:37;;;;;;;;;15.75;14.75;;;;;20.64;35.26;101731.44;5040226;28;45391;-46
2022/12/02 04:18:03;;;;;;;;;14.25;13.00;;;;;20.64;35.19;101722.66;5038675;28;45366;-49
2022/12/02 04:20:28;;;;;;;;;15.00;14.75;;;;;20.65;34.68;101720.00;5038304;28;45539;-46
2022/12/02 04:22:53;;;;;;;;;17.25;13.50;;;;;20.65;34.63;101709.47;5038966;28;47439;-48
2022/12/02 04:25:19;;;;;;;;;15.50;12.00;;;;;20.66;35.05;101711.16;5038971;28;45378;-46
2022/12/02 04:27:44;;;;;;;;;13.25;12.75;;;;;20.67;35.02;101714.66;5038243;28;45330;-49
2022/12/02 04:30:10;;;;;;;;;14.75;13.00;;;;;20.67;34.66;101707.59;5037406;28;58314;-49
2022/12/02 04:32:35;;;;;;;;;13.25;12.25;;;;;20.66;34.90;101705.91;5037955;28;45380;-49
2022/12/02 04:35:00;;;;;;;;;12.25;10.00;;;;;20.66;35.13;101711.16;5038153;28;45361;-48
2022/12/02 04:37:26;;;;;;;;;12.00;12.00;;;;;20.65;35.00;101716.47;5038511;28;45324;-50
2022/12/02 04:39:51;;;;;;;;;14.33;12.00;;;;;20.64;35.07;101715.63;5041679;28;60820;-49
2022/12/02 04:42:16;;;;;;;;;15.50;14.50;;;;;20.64;35.04;101718.28;5045752;28;50189;-48
2022/12/02 04:44:42;;;;;;;;;13.33;11.33;;;;;20.63;34.82;101719.19;5040374;28;52712;-50
2022/12/02 04:47:07;;;;;;;;;12.25;11.00;;;;;20.62;34.82;101714.84;5037438;28;45355;-44
2022/12/02 04:49:32;;;;;;;;;13.25;10.75;;;;;20.62;35.09;101712.22;5036894;28;46062;-50
2022/12/02 04:51:57;;;;;;;;;16.33;14.67;;;;;20.60;35.20;101703.50;5037217;28;56333;-49
2022/12/02 04:54:23;;;;;;;;;17.00;13.67;;;;;20.60;34.90;101706.13;5056845;28;51426;-49
2022/12/02 04:56:48;;;;;;;;;11.00;9.00;;;;;20.58;34.97;101704.50;5060318;28;48953;-50
2022/12/02 04:59:13;;;;;;;;;17.00;13.33;;;;;20.60;34.99;101705.28;5050994;28;54953;-49
2022/12/02 05:01:39;;;;;;;;;18.33;15.00;;;;;20.58;34.96;101702.72;5037041;28;54927;-48
2022/12/02 05:04:04;;;;;;;;;13.50;13.50;;;;;20.57;34.87;101700.16;5037414;28;45402;-50
2022/12/02 05:06:29;;;;;;;;;12.00;11.00;;;;;20.52;35.05;101695.06;5037372;28;45218;-47
2022/12/02 05:08:54;;;;;;;;;11.00;10.25;;;;;20.53;34.60;101695.00;5036506;28;46808;-49
2022/12/02 05:11:20;;;;;;;;;12.75;9.25;;;;;20.52;35.17;101695.06;5036716;28;45150;-50
2022/12/02 05:13:45;;;;;;;;;10.75;10.75;;;;;20.50;35.17;101692.53;5036588;28;45208;-47
2022/12/02 05:16:10;;;;;;;;;14.00;14.00;;;;;20.49;35.00;101700.47;5036383;28;47739;-49
2022/12/02 05:18:36;;;;;;;;;15.25;12.50;;;;;20.47;34.67;101695.28;5036167;28;45298;-49
2022/12/02 05:21:01;;;;;;;;;14.75;13.75;;;;;20.47;35.06;101690.00;5036141;28;45303;-47
2022/12/02 05:23:26;;;;;;;;;12.00;10.75;;;;;20.46;34.63;101690.03;5037179;28;45330;-49
2022/12/02 05:25:52;;;;;;;;;17.50;12.00;;;;;20.41;35.09;101681.50;5045116;28;45197;-49
2022/12/02 05:28:17;;;;;;;;;12.25;11.50;;;;;20.43;34.69;101682.31;5043428;28;47701;-48
2022/12/02 05:30:42;;;;;;;;;14.25;10.25;;;;;20.43;35.18;101683.13;5053990;27;53819;-51
2022/12/02 05:33:08;;;;;;;;;21.25;18.25;;;;;20.40;34.72;101678.00;5040499;28;45350;-53
2022/12/02 05:35:33;;;;;;;;;17.50;15.00;;;;;20.37;34.88;101678.97;5038403;28;45588;-50
2022/12/02 05:37:58;;;;;;;;;12.75;12.75;;;;;20.34;34.90;101678.25;5041741;28;46796;-50
2022/12/02 05:40:24;;;;;;;;;16.25;13.50;;;;;20.33;35.08;101671.28;5042006;28;45299;-55
2022/12/02 05:42:49;;;;;;;;;18.75;14.00;;;;;20.34;34.70;101671.19;5042328;28;45326;-51
2022/12/02 05:45:18;;;;;;;;;16.50;15.00;;;;;20.33;34.97;101661.63;5042597;28;45474;-52
2022/12/02 05:47:48;;;;;;;;;14.50;14.25;;;;;20.32;34.73;101662.53;5040699;28;47302;-50
2022/12/02 05:50:14;;;;;;;;;18.75;14.00;;;;;20.31;35.18;101667.84;5040137;28;45451;-56
2022/12/02 05:52:40;;;;;;;;;16.75;14.00;;;;;20.30;34.93;101661.75;5036792;28;45353;-53
2022/12/02 05:55:18;;;;;;;;;16.25;14.50;;;;;20.29;35.15;101657.38;5036401;28;45608;-50
2022/12/02 05:57:45;;;;;;;;;15.25;15.00;;;;;20.29;34.81;101659.16;5035789;28;47009;-49
2022/12/02 06:00:18;;;;;;;;;14.75;13.25;;;;;20.29;34.94;101660.03;5035820;28;45330;-51
2022/12/02 06:02:59;;;;;;;;;13.50;13.50;;;;;20.26;34.58;101659.31;5038224;28;45329;-54
2022/12/02 06:05:28;;;;;;;;;18.00;13.75;;;;;20.25;35.10;101653.16;5056687;28;44760;-49
2022/12/02 06:07:57;;;;;;;;;14.50;12.00;;;;;20.24;34.92;101651.44;5041212;28;45223;-53
2022/12/02 06:10:30;;;;;;;;;8.50;7.00;;;;;20.22;35.24;101650.69;5036081;28;45936;-51
2022/12/02 06:13:04;;;;;;;;;16.25;13.75;;;;;20.18;34.77;101631.50;5036982;28;45434;-49
2022/12/02 06:15:35;;;;;;;;;17.00;13.00;;;;;20.18;35.00;101642.03;5036061;28;45323;-47
2022/12/02 06:18:02;;;;;;;;;16.25;13.25;;;;;20.16;35.06;101648.28;5036306;28;45427;-48
2022/12/02 06:20:32;;;;;;;;;15.50;11.50;;;;;20.15;34.99;101659.72;5036084;28;45921;-48
2022/12/02 06:23:01;;;;;;;;;15.75;14.50;;;;;20.14;35.13;101650.13;5036161;28;45383;-50
2022/12/02 06:25:31;;;;;;;;;16.25;15.25;;;;;20.11;35.21;101639.72;5053357;28;45299;-49
2022/12/02 06:28:23;;;;;;;;;15.00;15.00;;;;;20.10;35.33;101651.19;5060051;28;46389;-48
2022/12/02 06:30:49;;;;;;;;;20.25;14.25;;;;;20.08;35.10;101649.47;5058896;28;45152;-48
2022/12/02 06:33:25;;;;;;;;;15.50;12.50;;;;;20.06;34.89;101646.03;5064024;28;44666;-51
2022/12/02 06:35:52;;;;;;;;;16.25;13.50;;;;;20.02;35.31;101641.78;5052924;28;45214;-51
2022/12/02 06:38:29;;;;;;;;;17.50;14.50;;;;;20.02;34.85;101639.16;5039879;28;46680;-52
2022/12/02 06:40:55;;;;;;;;;22.25;16.50;;;;;20.01;35.07;101644.50;5043580;28;45372;-50
2022/12/02 06:43:25;;;;;;;;;15.25;12.75;;;;;19.99;35.53;101648.97;5060530;28;45473;-50
2022/12/02 06:45:51;;;;;;;;;16.75;15.75;;;;;19.98;35.42;101645.50;5055455;28;45508;-48
2022/12/02 06:48:25;;;;;;;;;16.50;14.75;;;;;19.98;35.03;101637.59;5052334;28;45168;-52
2022/12/02 06:50:50;;;;;;;;;14.00;12.75;;;;;19.98;34.93;101637.59;5054830;28;45231;-46
2022/12/02 06:53:32;;;;;;;;;22.25;13.50;;;;;19.97;34.97;101637.63;5047675;28;45359;-48
2022/12/02 06:56:12;;;;;;;;;15.25;13.50;;;;;19.95;35.25;101635.06;5060814;28;45214;-50
2022/12/02 06:58:44;;;;;;;;;9.75;9.75;;;;;19.93;35.15;101632.53;5039070;28;45484;-48
2022/12/02 07:01:13;;;;;;;;;15.00;13.75;;;;;19.93;35.29;101636.91;5038627;28;45920;-46
2022/12/02 07:03:46;;;;;;;;;15.00;13.25;;;;;19.92;35.32;101635.19;5039417;28;45295;-50
2022/12/02 07:06:19;;;;;;;;;15.25;15.25;;;;;19.91;35.53;101636.97;5040028;28;45701;-45
2022/12/02 07:08:45;;;;;;;;;19.50;15.25;;;;;19.91;35.65;101638.75;5044249;28;45378;-48
2022/12/02 07:11:21;;;;;;;;;16.25;14.00;;;;;19.90;35.31;101643.16;5049671;28;45746;-49
2022/12/02 07:13:47;;;;;;;;;17.00;14.50;;;;;19.89;35.27;101640.59;5046668;28;45437;-47
2022/12/02 07:16:42;;;;;;;;;19.25;17.25;;;;;19.88;35.17;101631.00;5041564;28;45421;-48
2022/12/02 07:19:15;;;;;;;;;18.00;15.00;;;;;19.87;35.22;101631.91;5048164;28;45509;-46
2022/12/02 07:21:41;;;;;;;;;19.75;16.25;;;;;19.85;35.04;101631.06;5063399;28;45743;-48
2022/12/02 07:24:12;;;;;;;;;24.50;18.25;;;;;19.83;35.38;101620.63;5041913;28;45399;-51
2022/12/02 07:26:37;;;;;;;;;18.50;18.50;;;;;19.83;35.49;101640.78;5042190;28;45224;-49
2022/12/02 07:29:04;;;;;;;;;23.50;16.25;;;;;19.81;35.26;101634.72;5042214;28;46450;-49
2022/12/02 07:31:30;;;;;;;;;15.75;14.25;;;;;19.80;34.92;101638.28;5055826;28;45312;-51
2022/12/02 07:33:55;;;;;;;;;18.00;16.00;;;;;19.82;35.43;101639.06;5039850;28;45326;-46
2022/12/02 07:36:20;;;;;;;;;15.25;13.75;;;;;19.84;35.60;101626.72;5039930;28;45624;-52
2022/12/02 07:38:46;;;;;;;;;19.75;17.50;;;;;19.84;35.43;101626.72;5043056;28;47151;-49
2022/12/02 07:41:12;;;;;;;;;17.25;14.50;;;;;19.81;35.31;101617.19;5053014;28;45314;-55
2022/12/02 07:43:38;;;;;;;;;23.75;16.50;;;;;19.80;35.54;101626.00;5052070;28;45392;-47
2022/12/02 07:46:03;;;;;;;;;19.25;15.00;;;;;19.82;35.36;101628.56;5047580;28;45570;-50
2022/12/02 07:48:29;;;;;;;;;18.25;16.50;;;;;19.81;35.52;101632.09;5054062;28;45826;-48
2022/12/02 07:50:54;;;;;;;;;16.67;15.00;;;;;19.82;35.34;101641.72;5058237;28;44863;-50
2022/12/02 07:53:19;;;;;;;;;14.75;13.25;;;;;19.83;35.14;101635.53;5051239;28;45414;-51
2022/12/02 07:55:45;;;;;;;;;18.50;15.50;;;;;19.82;35.35;101628.56;5052258;27;45325;-49
2022/12/02 07:58:10;;;;;;;;;19.50;18.50;;;;;19.81;35.12;101629.47;5059717;27;49938;-50
2022/12/02 08:00:36;;;;;;;;;16.00;15.50;;;;;19.81;35.05;101629.47;5041046;28;45397;-49
2022/12/02 08:03:02;;;;;;;;;18.50;15.00;;;;;19.81;35.19;101634.72;5041582;28;45625;-52
2022/12/02 08:05:27;;;;;;;;;13.75;13.50;;;;;19.81;35.72;101642.63;5038811;28;45501;-49
2022/12/02 08:07:53;;;;;;;;;18.25;16.50;;;;;19.77;35.22;101632.25;5050537;28;45968;-50
2022/12/02 08:10:20;;;;;;;;;19.50;15.50;;;;;19.78;35.09;101636.59;5056929;28;45209;-51
2022/12/02 08:12:45;;;;;;;;;17.50;15.25;;;;;19.77;35.74;101640.13;5051567;28;44673;-49
2022/12/02 08:15:12;;;;;;;;;18.25;16.25;;;;;19.78;35.49;101643.59;5039086;28;45334;-54
2022/12/02 08:17:38;;;;;;;;;15.25;13.00;;;;;19.77;35.29;101637.50;5053707;28;48640;-50
2022/12/02 08:20:06;;;;;;;;;16.75;13.75;;;;;19.75;35.34;101626.19;5039972;28;45386;-50
2022/12/02 08:22:31;;;;;;;;;22.00;16.50;;;;;19.74;35.63;101629.72;5038455;28;45369;-51
2022/12/02 08:24:57;;;;;;;;;17.25;16.00;;;;;19.75;35.46;101634.06;5037965;28;45501;-53
2022/12/02 08:27:23;;;;;;;;;18.00;14.75;;;;;19.74;35.46;101632.34;5037552;28;46119;-50
2022/12/02 08:29:49;;;;;;;;;17.00;14.25;;;;;19.75;35.79;101636.69;5037782;28;45272;-51
2022/12/02 08:32:18;;;;;;;;;18.75;15.00;;;;;19.75;35.90;101643.72;5037364;28;45331;-48
2022/12/02 11:06:23;;;;;;;;;18.25;17.00;;;;;20.47;35.09;101531.13;5729289;22;46605;-46
2022/12/02 11:08:49;;;;;;;;;22.75;19.00;;;;;20.47;35.40;101537.28;5050386;28;45429;-46
2022/12/02 11:11:23;;;;;;;;;19.25;19.25;;;;;20.45;35.45;101525.94;5038363;28;45468;-46
2022/12/02 11:13:52;;;;;;;;;29.25;23.75;;;;;20.46;35.60;101525.03;5037189;28;46155;-45
2022/12/02 11:16:26;;;;;;;;;36.25;30.75;;;;;20.42;35.13;101522.59;5037158;28;46487;-44
2022/12/02 11:19:24;;;;;;;;;45.25;35.00;;;;;20.42;35.61;101527.88;5037829;28;45990;-45
2022/12/02 11:21:50;;;;;;;;;45.75;34.00;;;;;20.41;35.34;101520.88;5038866;28;45334;-43
2022/12/02 11:24:27;;;;;;;;;35.50;32.00;;;;;20.39;35.77;101519.19;5038497;28;45221;-46
2022/12/02 11:26:58;;;;;;;;;39.50;31.50;;;;;20.37;35.51;101521.03;5038129;28;46634;-42
2022/12/02 11:29:28;;;;;;;;;40.00;31.25;;;;;20.37;35.44;101509.66;5038125;28;45401;-45
2022/12/02 11:32:15;;;;;;;;;39.00;29.00;;;;;20.37;35.58;101501.75;5038717;28;45490;-48
2022/12/02 11:34:45;;;;;;;;;42.00;33.00;;;;;20.36;35.53;101508.78;5038224;28;45530;-44
2022/12/02 11:37:28;;;;;;;;;39.50;30.75;;;;;20.36;35.66;101508.78;5052920;28;46857;-47
2022/12/02 11:39:56;;;;;;;;;45.50;33.00;;;;;20.36;35.83;101502.66;5037229;28;45950;-46
2022/12/02 11:42:28;;;;;;;;;46.50;31.50;;;;;20.34;35.44;101504.50;5038440;28;45336;-42
2022/12/02 11:45:09;;;;;;;;;36.50;28.50;;;;;20.32;35.68;101499.31;5038644;28;45223;-43
2022/12/02 11:47:34;;;;;;;;;37.75;30.75;;;;;20.31;35.38;101492.34;5036407;28;47066;-46
2022/12/02 11:50:15;;;;;;;;;43.00;32.00;;;;;20.31;35.79;101494.97;5037174;28;45472;-45
2022/12/02 11:52:44;;;;;;;;;36.25;29.25;;;;;20.33;35.25;101494.91;5037584;28;45375;-47
2022/12/02 11:55:23;;;;;;;;;42.50;33.50;;;;;20.31;35.36;101492.34;5037212;28;45610;-42
2022/12/02 11:57:55;;;;;;;;;39.50;32.00;;;;;20.32;35.39;101490.53;5037382;28;46288;-46
2022/12/02 12:00:32;;;;;;;;;38.25;29.00;;;;;20.32;35.45;101486.16;5038003;28;45927;-44
2022/12/02 12:03:10;;;;;;;;;43.25;33.00;;;;;20.31;35.67;101487.06;5037702;28;45341;-44
2022/12/02 12:05:35;;;;;;;;;35.00;29.75;;;;;20.31;35.79;101478.31;5037801;28;45458;-46
2022/12/02 12:08:01;;;;;;;;;39.50;31.25;;;;;20.31;35.66;101476.53;5035798;28;46484;-45
2022/12/02 12:10:34;;;;;;;;;31.75;24.00;;;;;20.30;35.88;101472.19;5037479;28;45341;-42
2022/12/02 12:13:13;;;;;;;;;33.50;28.75;;;;;20.31;35.88;101473.03;5037141;28;45447;-43
2022/12/02 12:15:59;;;;;;;;;33.50;22.75;;;;;20.29;35.99;101459.97;5037709;28;45401;-47
2022/12/02 12:18:53;;;;;;;;;26.00;21.75;;;;;20.30;35.66;101456.41;5040547;28;45698;-46
2022/12/02 12:21:31;;;;;;;;;39.00;28.25;;;;;20.30;35.99;101459.03;5052264;28;45429;-54
2022/12/02 12:24:15;;;;;;;;;36.50;29.00;;;;;20.29;35.70;101451.19;5056357;28;45437;-49
2022/12/02 12:26:43;;;;;;;;;36.25;30.25;;;;;20.28;36.01;101447.72;5057685;28;45524;-50
2022/12/02 12:29:08;;;;;;;;;39.25;31.50;;;;;20.29;35.90;101448.56;5056560;28;46577;-46
2022/12/02 12:31:34;;;;;;;;;6.00;0.00;;;;;20.28;36.00;101439.81;5057055;28;48871;-46
2022/12/02 12:33:59;;;;;;;;;33.75;28.25;;;;;20.28;35.81;101437.19;5057331;28;45214;-51
2022/12/02 12:36:25;;;;;;;;;35.75;31.00;;;;;20.28;35.83;101437.19;5057839;28;45320;-46
2022/12/02 12:38:50;;;;;;;;;29.00;26.25;;;;;20.28;35.99;101437.19;5057000;28;45522;-46
2022/12/02 12:41:15;;;;;;;;;33.50;29.75;;;;;20.25;35.96;101424.16;5056899;28;45237;-44
2022/12/02 12:43:41;;;;;;;;;33.50;25.50;;;;;20.25;35.72;101421.53;5057097;28;45614;-44
2022/12/02 12:46:06;;;;;;;;;32.25;28.50;;;;;20.22;35.97;101417.25;5056224;28;45270;-44
2022/12/02 12:48:32;;;;;;;;;31.25;26.25;;;;;20.21;35.94;101414.72;5056864;28;46325;-43
2022/12/02 12:50:57;;;;;;;;;35.50;29.00;;;;;20.18;35.71;101407.78;5057394;28;45310;-45
2022/12/02 12:53:23;;;;;;;;;33.00;29.75;;;;;20.17;35.79;101403.47;5073024;28;45393;-46
2022/12/02 12:55:48;;;;;;;;;34.25;28.25;;;;;20.17;36.07;101408.72;5057300;28;45393;-50
2022/12/02 12:58:14;;;;;;;;;38.00;29.25;;;;;20.14;35.70;101403.59;5056734;28;46124;-49
2022/12/02 13:00:39;;;;;;;;;34.00;26.75;;;;;20.12;35.95;101399.34;5056939;28;45439;-48
2022/12/02 13:03:05;;;;;;;;;31.50;25.25;;;;;20.14;35.49;101394.81;5057078;28;45444;-51
2022/12/02 13:05:30;;;;;;;;;31.75;28.75;;;;;20.11;35.50;101387.09;5055895;28;45513;-46
2022/12/02 13:07:56;;;;;;;;;33.25;27.75;;;;;20.12;35.62;101383.53;5056883;28;46132;-45
2022/12/02 13:10:22;;;;;;;;;36.00;26.00;;;;;20.11;35.94;101395.00;5056845;28;45474;-46
2022/12/02 13:12:47;;;;;;;;;24.50;23.75;;;;;20.08;36.09;101388.94;5072524;28;45451;-44
2022/12/02 13:15:13;;;;;;;;;29.75;27.75;;;;;20.04;35.78;101384.72;5057117;28;45297;-45
2022/12/02 13:17:38;;;;;;;;;31.25;26.00;;;;;20.05;35.72;101389.06;5056872;28;46508;-45
2022/12/02 13:20:05;;;;;;;;;31.25;26.50;;;;;20.04;35.33;101383.88;5055457;28;45594;-44
2022/12/02 13:22:30;;;;;;;;;31.50;26.75;;;;;20.04;35.92;101383.88;5056880;28;45299;-42
2022/12/02 13:24:56;;;;;;;;;22.00;17.00;;;;;20.01;35.43;101382.22;5057161;28;45245;-43
2022/12/02 13:27:21;;;;;;;;;26.25;23.25;;;;;20.01;35.53;101376.13;5056301;28;45277;-45
2022/12/02 13:29:47;;;;;;;;;28.75;27.50;;;;;19.99;35.69;101373.56;5056588;28;45357;-44
2022/12/02 13:32:12;;;;;;;;;29.25;25.75;;;;;19.98;35.49;101371.84;5055546;28;45257;-42
2022/12/02 13:34:38;;;;;;;;;32.25;25.75;;;;;19.98;35.67;101377.13;5056708;28;45421;-45
2022/12/02 13:37:03;;;;;;;;;28.25;26.25;;;;;19.96;35.63;101373.69;5056528;28;46105;-44
2022/12/02 13:39:29;;;;;;;;;31.50;27.75;;;;;19.95;35.43;101371.97;5056336;28;45385;-45
2022/12/02 13:41:54;;;;;;;;;28.50;24.75;;;;;19.94;35.62;101372.91;5054634;28;45750;-43
2022/12/02 13:44:20;;;;;;;;;28.00;26.50;;;;;19.94;35.84;101370.25;5056653;28;45570;-45
2022/12/02 13:46:45;;;;;;;;;23.25;23.00;;;;;19.92;35.65;101366.84;5056242;28;46223;-44